Pagrindinis puslapis
METAR-TAF:

METAR-TAF

Oro uostai :

Bornmutas, Anglija

platuma: 50-47N, ilguma: 001-50W, Aukštis: 11 m

Dabartinis oras

Ataskaita buvo paskelbta 9 valandos ir 50 minutes, ne 11:50 UTC
Vėjas 6 kt iš Šiaurės Vakarų, svyruoja nuo Vakarų ir Šiaurės
Temperatūra 4°C
Drėgmė 87%
Slėgis 996 hPa
Matomumas 10 km arba daugiau
Mažai debesys ne aukštis 4800 ft

METAR: EGHH 231150Z 31006KT 260V360 9999 FEW048 04/02 Q0996

Laikas: 21:40 (21:40 UTC)

Prognozė

Ataskaita buvo paskelbta 10 valandos ir 36 minutes, ne 11:04 UTC
Prognozė galioja nuo 23 metu 12 UTC su 23 metu 21 UTC
Vėjas 5 kt iš Vakarų/Šiaurės Vakarų
Matomumas 10 km arba daugiau
Mažai debesys ne aukštis 2500 ft

TAF: EGHH 231104Z 2312/2321 30005KT 9999 FEW025

Orai ataskaitas ir orų prognozės (METAR, TAF).

turimą stotys yra geltonos ir raudonos taškus žemėlapyje.

Perkelti pele per norėdami pamatyti stoties vardą.

Tada spustelėkite, norėdami matyti oro stebėjimo ir prognozės.

Norėdami pakeisti žemėlapį: spustelėkite ant žalios mygtukų su juodo kryžiaus žemyn,; žalią mygtuką su brūkšneliu, jei norite nutolinti; arba žalių rodyklių gretimoms žemėlapius.


METAR-TAF: